createdAt,value
2018-03-11T00:01:19.314Z,43.77
2018-03-11T00:03:46.797Z,44.50
2018-03-11T00:06:14.264Z,42.63
2018-03-11T00:08:41.772Z,42.77
2018-03-11T00:11:09.281Z,43.80
2018-03-11T00:13:36.783Z,42.97
2018-03-11T00:16:05.768Z,45.30
2018-03-11T00:18:33.265Z,45.23
2018-03-11T00:21:01.508Z,44.50
2018-03-11T00:23:29.365Z,44.43
2018-03-11T00:25:56.829Z,47.47
2018-03-11T00:28:24.416Z,45.87
2018-03-11T00:30:52.006Z,45.83
2018-03-11T00:33:19.502Z,47.03
2018-03-11T00:35:47.781Z,49.17
2018-03-11T00:38:15.287Z,47.73
2018-03-11T00:40:42.778Z,48.63
2018-03-11T00:43:10.389Z,49.03
2018-03-11T00:45:37.843Z,48.50
2018-03-11T00:48:05.416Z,45.53
2018-03-11T00:50:32.897Z,47.63
2018-03-11T00:53:00.390Z,44.80
2018-03-11T00:55:27.916Z,42.93
2018-03-11T00:57:56.144Z,43.93
2018-03-11T01:00:24.389Z,42.57
2018-03-11T01:02:52.720Z,43.33
2018-03-11T01:05:20.188Z,46.27
2018-03-11T01:07:48.537Z,40.97
2018-03-11T01:10:16.009Z,41.10
2018-03-11T01:12:43.507Z,39.73
2018-03-11T01:15:11.005Z,41.20
2018-03-11T01:17:39.254Z,40.80
2018-03-11T01:20:06.768Z,40.20
2018-03-11T01:22:34.241Z,40.10
2018-03-11T01:25:01.742Z,44.47
2018-03-11T01:27:29.217Z,45.27
2018-03-11T01:29:56.713Z,46.77
2018-03-11T01:32:24.293Z,44.53
2018-03-11T01:34:51.773Z,46.37
2018-03-11T01:37:19.282Z,47.20
2018-03-11T01:39:47.562Z,46.50
2018-03-11T01:42:15.033Z,53.83
2018-03-11T01:44:42.496Z,53.93
2018-03-11T01:47:10.728Z,50.80
2018-03-11T01:49:38.251Z,49.73
2018-03-11T01:52:05.722Z,49.17
2018-03-11T01:54:33.226Z,49.00
2018-03-11T01:57:00.699Z,46.67
2018-03-11T01:59:28.173Z,46.10
2018-03-11T02:01:55.648Z,45.90
2018-03-11T02:04:23.154Z,44.97
2018-03-11T02:06:50.639Z,46.43
2018-03-11T02:09:18.140Z,46.80
2018-03-11T02:11:45.606Z,47.33
2018-03-11T02:14:13.072Z,44.47
2018-03-11T02:16:40.567Z,42.70
2018-03-11T02:19:08.051Z,43.87
2018-03-11T02:21:35.548Z,44.83
2018-03-11T02:26:38.808Z,42.73
2018-03-11T02:29:06.304Z,41.63
2018-03-11T02:31:34.592Z,39.70
2018-03-11T02:34:02.171Z,42.40
2018-03-11T02:36:29.646Z,40.00
2018-03-11T02:38:57.158Z,45.87
2018-03-11T02:41:24.726Z,42.37
2018-03-11T02:43:52.313Z,39.57
2018-03-11T02:46:19.828Z,41.30
2018-03-11T02:48:47.298Z,43.47
2018-03-11T02:51:14.801Z,42.57
2018-03-11T02:53:42.300Z,44.37
2018-03-11T02:56:10.558Z,42.83
2018-03-11T02:58:38.028Z,43.87
2018-03-11T03:01:05.513Z,46.47
2018-03-11T03:03:33.005Z,44.90
2018-03-11T03:06:00.475Z,42.87
2018-03-11T03:08:27.955Z,45.90
2018-03-11T03:10:55.490Z,40.80
2018-03-11T03:13:22.992Z,40.00
2018-03-11T03:15:51.229Z,39.77
2018-03-11T03:18:18.737Z,35.60
2018-03-11T03:20:46.235Z,29.50
2018-03-11T03:23:13.726Z,27.90
2018-03-11T03:25:41.294Z,30.30
2018-03-11T03:28:08.769Z,29.97
2018-03-11T03:30:36.275Z,30.57
2018-03-11T03:33:03.865Z,31.73
2018-03-11T03:35:31.322Z,31.20
2018-03-11T03:37:58.794Z,27.93
2018-03-11T03:40:26.315Z,27.37
2018-03-11T03:42:53.814Z,29.53
2018-03-11T03:45:21.289Z,26.33
2018-03-11T03:47:48.796Z,30.97
2018-03-11T03:50:16.372Z,31.53
2018-03-11T03:52:43.951Z,30.83
2018-03-11T03:55:11.432Z,29.43
2018-03-11T03:57:38.902Z,28.97
2018-03-11T04:00:09.417Z,29.40
2018-03-11T04:02:36.883Z,31.00
2018-03-11T04:05:04.392Z,31.77
2018-03-11T04:07:31.917Z,34.13
2018-03-11T04:09:59.428Z,32.13
2018-03-11T04:12:26.897Z,34.87
2018-03-11T04:14:54.366Z,36.33
2018-03-11T04:17:21.897Z,35.23
2018-03-11T04:19:49.458Z,30.37
2018-03-11T04:22:16.922Z,28.80
2018-03-11T04:24:44.392Z,38.37
2018-03-11T04:27:11.861Z,34.57
2018-03-11T04:29:39.324Z,30.97
2018-03-11T04:32:07.568Z,42.23
2018-03-11T04:34:35.092Z,69.63
2018-03-11T04:37:02.577Z,55.10
2018-03-11T04:39:30.056Z,58.43
2018-03-11T04:41:57.531Z,53.03
2018-03-11T04:44:25.007Z,40.67
2018-03-11T04:46:52.483Z,38.57
2018-03-11T04:49:19.953Z,32.03
2018-03-11T04:51:47.430Z,28.37
2018-03-11T04:54:15.048Z,26.97
2018-03-11T04:56:43.281Z,27.60
2018-03-11T04:59:10.775Z,27.97
2018-03-11T05:01:38.248Z,39.67
2018-03-11T05:04:05.720Z,61.27
2018-03-11T05:06:33.193Z,41.73
2018-03-11T05:09:00.666Z,55.90
2018-03-11T05:11:28.910Z,72.10
2018-03-11T05:13:56.388Z,80.67
2018-03-11T05:16:24.863Z,66.67
2018-03-11T05:18:52.408Z,69.60
2018-03-11T05:21:19.890Z,58.13
2018-03-11T05:23:47.358Z,59.50
2018-03-11T05:26:14.814Z,71.70
2018-03-11T05:28:42.291Z,77.47
2018-03-11T05:31:09.755Z,78.03
2018-03-11T05:33:37.234Z,77.23
2018-03-11T05:36:05.466Z,76.77
2018-03-11T05:38:32.946Z,76.03
2018-03-11T05:41:01.194Z,75.43
2018-03-11T05:43:28.660Z,69.83
2018-03-11T05:45:56.130Z,53.23
2018-03-11T05:48:23.616Z,40.60
2018-03-11T05:50:51.080Z,36.33
2018-03-11T05:53:19.324Z,41.50
2018-03-11T05:55:46.937Z,40.17
2018-03-11T05:58:14.400Z,33.47
2018-03-11T06:00:41.867Z,30.20
2018-03-11T06:03:09.376Z,30.20
2018-03-11T06:05:36.846Z,30.43
2018-03-11T06:08:04.388Z,28.20
2018-03-11T06:10:32.060Z,33.37
2018-03-11T06:12:59.498Z,35.07
2018-03-11T06:15:26.989Z,33.83
2018-03-11T06:17:54.573Z,33.40
2018-03-11T06:20:22.106Z,33.70
2018-03-11T06:22:50.327Z,31.13
2018-03-11T06:25:17.795Z,29.80
2018-03-11T06:27:45.318Z,29.57
2018-03-11T06:30:12.774Z,32.63
2018-03-11T06:32:40.238Z,26.83
2018-03-11T06:35:07.724Z,25.03
2018-03-11T06:37:35.214Z,26.97
2018-03-11T06:40:03.652Z,26.47
2018-03-11T06:42:31.125Z,25.87
2018-03-11T06:44:58.632Z,25.70
2018-03-11T06:47:26.102Z,24.67
2018-03-11T06:49:53.581Z,26.97
2018-03-11T06:52:21.071Z,27.17
2018-03-11T06:54:48.552Z,23.30
2018-03-11T06:57:16.202Z,23.70
2018-03-11T06:59:43.670Z,23.87
2018-03-11T07:02:12.041Z,23.90
2018-03-11T07:04:40.350Z,25.73
2018-03-11T07:07:07.836Z,26.50
2018-03-11T07:09:36.114Z,24.00
2018-03-11T07:14:13.878Z,25.40
2018-03-11T07:16:41.500Z,24.70
2018-03-11T07:19:09.057Z,24.90
2018-03-11T07:21:36.545Z,24.87
2018-03-11T07:24:04.059Z,24.67
2018-03-11T07:26:31.516Z,23.27
2018-03-11T07:28:58.997Z,23.27
2018-03-11T07:31:26.469Z,21.67
2018-03-11T07:33:54.032Z,22.70
2018-03-11T07:36:21.596Z,23.20
2018-03-11T07:38:49.077Z,21.20
2018-03-11T07:41:17.308Z,19.80
2018-03-11T07:43:45.086Z,19.77
2018-03-11T07:46:12.550Z,19.07
2018-03-11T07:48:40.024Z,16.63
2018-03-11T07:51:07.505Z,17.13
2018-03-11T07:53:35.013Z,15.80
2018-03-11T07:56:02.501Z,15.77
2018-03-11T07:58:29.967Z,15.37
2018-03-11T08:00:57.448Z,14.83
2018-03-11T08:03:24.912Z,14.03
2018-03-11T08:05:53.168Z,13.60
2018-03-11T08:08:20.648Z,13.10
2018-03-11T08:10:48.152Z,13.40
2018-03-11T08:13:15.618Z,13.20
2018-03-11T08:15:43.087Z,13.05
2018-03-11T08:18:10.599Z,12.80
2018-03-11T08:20:38.065Z,12.93
2018-03-11T08:23:05.567Z,13.35
2018-03-11T08:25:33.093Z,13.33
2018-03-11T08:28:01.337Z,14.63
2018-03-11T08:30:29.260Z,13.57
2018-03-11T08:32:56.725Z,14.27
2018-03-11T08:35:24.207Z,13.27
2018-03-11T08:37:51.694Z,13.30
2018-03-11T08:40:19.196Z,12.90
2018-03-11T08:42:46.706Z,13.00
2018-03-11T08:45:14.916Z,11.53
2018-03-11T08:47:43.147Z,12.80
2018-03-11T08:50:10.614Z,12.57
2018-03-11T08:52:38.162Z,12.30
2018-03-11T08:55:05.630Z,12.83
2018-03-11T08:57:33.104Z,12.80
2018-03-11T09:00:00.597Z,12.00
2018-03-11T09:02:28.111Z,12.33
2018-03-11T09:04:55.683Z,12.87
2018-03-11T09:07:23.192Z,11.83
2018-03-11T09:09:50.658Z,12.33
2018-03-11T09:12:18.137Z,11.57
2018-03-11T09:14:45.709Z,10.73
2018-03-11T09:17:13.170Z,11.30
2018-03-11T09:19:40.645Z,10.60
2018-03-11T09:22:08.136Z,10.43
2018-03-11T09:24:35.721Z,10.48
2018-03-11T09:27:03.247Z,10.18
2018-03-11T09:29:30.715Z,10.02
2018-03-11T09:31:58.232Z,10.80
2018-03-11T09:34:25.704Z,10.05
2018-03-11T09:36:53.335Z,9.93
2018-03-11T09:39:21.592Z,9.63
2018-03-11T09:41:49.053Z,12.45
2018-03-11T09:44:16.664Z,9.80
2018-03-11T09:46:44.148Z,9.38
2018-03-11T09:49:11.694Z,8.55
2018-03-11T09:51:39.158Z,8.60
2018-03-11T09:54:07.461Z,7.90
2018-03-11T09:56:36.059Z,7.22
2018-03-11T09:59:04.484Z,7.03
2018-03-11T10:01:31.956Z,7.00
2018-03-11T10:04:00.204Z,6.47
2018-03-11T10:06:27.696Z,6.50
2018-03-11T10:08:55.190Z,6.70
2018-03-11T10:11:22.698Z,6.03
2018-03-11T10:13:50.284Z,5.70
2018-03-11T10:16:17.781Z,6.60
2018-03-11T10:18:45.260Z,6.60
2018-03-11T10:21:12.738Z,6.80
2018-03-11T10:23:41.719Z,6.43
2018-03-11T10:26:09.230Z,5.93
2018-03-11T10:28:36.739Z,6.17
2018-03-11T10:31:04.201Z,5.93
2018-03-11T10:33:31.677Z,6.10
2018-03-11T10:35:59.149Z,6.40
2018-03-11T10:38:26.671Z,6.00
2018-03-11T10:40:54.941Z,5.47
2018-03-11T10:43:22.475Z,5.10
2018-03-11T10:45:49.935Z,5.50
2018-03-11T10:48:17.390Z,6.00
2018-03-11T10:50:44.893Z,5.27
2018-03-11T10:53:12.336Z,5.43
2018-03-11T10:55:40.657Z,5.37
2018-03-11T10:58:08.122Z,4.87
2018-03-11T11:00:42.053Z,4.23
2018-03-11T11:03:15.875Z,4.27
2018-03-11T11:05:43.389Z,4.30
2018-03-11T11:08:10.937Z,3.93
2018-03-11T11:10:38.412Z,3.50
2018-03-11T11:13:05.904Z,3.60
2018-03-11T11:15:33.393Z,3.77
2018-03-11T11:18:00.920Z,3.90
2018-03-11T11:20:28.399Z,3.83
2018-03-11T11:22:55.906Z,3.03
2018-03-11T11:25:23.382Z,3.23
2018-03-11T11:27:50.858Z,3.63
2018-03-11T11:30:18.344Z,3.40
2018-03-11T11:32:45.846Z,3.30
2018-03-11T11:35:13.427Z,3.00
2018-03-11T11:37:40.893Z,3.10
2018-03-11T11:40:08.369Z,2.80
2018-03-11T11:42:36.040Z,2.70
2018-03-11T11:45:04.445Z,2.63
2018-03-11T11:47:31.974Z,2.47
2018-03-11T11:49:59.445Z,2.37
2018-03-11T11:52:27.700Z,2.10
2018-03-11T11:54:55.276Z,2.07
2018-03-11T11:57:22.738Z,2.10
2018-03-11T11:59:50.304Z,2.20
2018-03-11T12:02:18.810Z,2.00
2018-03-11T12:04:47.112Z,2.30
2018-03-11T12:07:15.338Z,2.17
2018-03-11T12:09:43.585Z,2.13
2018-03-11T12:12:11.094Z,2.60
2018-03-11T12:14:38.670Z,2.20
2018-03-11T12:17:07.145Z,2.10
2018-03-11T12:19:34.646Z,2.17
2018-03-11T12:22:02.122Z,2.00
2018-03-11T12:24:29.617Z,2.60
2018-03-11T12:26:57.074Z,1.53
2018-03-11T12:29:25.328Z,1.80
2018-03-11T12:31:52.905Z,2.30
2018-03-11T12:34:20.373Z,1.83
2018-03-11T12:36:47.950Z,1.87
2018-03-11T12:39:15.476Z,2.03
2018-03-11T12:41:42.951Z,1.87
2018-03-11T12:44:11.192Z,1.80
2018-03-11T12:46:38.658Z,1.57
2018-03-11T12:49:06.169Z,1.70
2018-03-11T12:51:34.400Z,1.90
2018-03-11T12:54:01.871Z,1.80
2018-03-11T12:56:29.345Z,1.33
2018-03-11T12:58:56.809Z,1.60
2018-03-11T13:01:24.391Z,1.60
2018-03-11T13:03:51.845Z,1.47
2018-03-11T13:06:19.336Z,1.43
2018-03-11T13:08:46.811Z,1.83
2018-03-11T13:11:15.066Z,1.40
2018-03-11T13:13:42.571Z,2.27
2018-03-11T13:16:10.035Z,1.83
2018-03-11T13:18:37.508Z,1.70
2018-03-11T13:21:14.520Z,1.97
2018-03-11T13:23:42.752Z,1.80
2018-03-11T13:26:11.090Z,1.70
2018-03-11T13:28:47.231Z,1.73
2018-03-11T13:31:14.846Z,2.40
2018-03-11T13:33:54.173Z,2.13
2018-03-11T13:36:22.413Z,2.10
2018-03-11T13:39:01.725Z,2.00
2018-03-11T13:41:29.197Z,1.77
2018-03-11T13:43:56.665Z,1.77
2018-03-11T13:46:36.046Z,1.70
2018-03-11T13:49:03.536Z,2.00
2018-03-11T13:51:42.900Z,2.00
2018-03-11T13:54:10.392Z,1.80
2018-03-11T13:56:37.853Z,1.70
2018-03-11T13:59:05.321Z,1.63
2018-03-11T14:01:33.557Z,1.80
2018-03-11T14:04:01.058Z,1.83
2018-03-11T14:06:28.594Z,1.77
2018-03-11T14:08:56.053Z,1.87
2018-03-11T14:11:23.503Z,1.80
2018-03-11T14:13:51.814Z,1.80
2018-03-11T14:16:20.079Z,1.70
2018-03-11T14:18:47.653Z,3.27
2018-03-11T14:21:15.117Z,1.67
2018-03-11T14:23:42.616Z,2.17
2018-03-11T14:26:10.077Z,1.60
2018-03-11T14:28:38.321Z,1.63
2018-03-11T14:31:05.889Z,1.70
2018-03-11T14:33:33.353Z,1.90
2018-03-11T14:36:01.580Z,1.57
2018-03-11T14:38:29.038Z,1.30
2018-03-11T14:40:57.265Z,1.43
2018-03-11T14:43:25.725Z,1.30
2018-03-11T14:45:53.962Z,1.57
2018-03-11T14:48:21.430Z,1.10
2018-03-11T14:50:49.691Z,0.97
2018-03-11T14:53:17.154Z,1.30
2018-03-11T14:55:44.665Z,1.27
2018-03-11T14:58:12.135Z,1.20
2018-03-11T15:00:39.727Z,1.17
2018-03-11T15:03:07.196Z,1.07
2018-03-11T15:05:34.706Z,1.23
2018-03-11T15:08:02.263Z,1.20
2018-03-11T15:10:29.788Z,1.57
2018-03-11T15:12:57.249Z,1.30
2018-03-11T15:15:24.721Z,1.63
2018-03-11T15:17:52.188Z,1.40
2018-03-11T15:20:19.714Z,1.20
2018-03-11T15:22:47.206Z,1.40
2018-03-11T15:25:14.726Z,1.83
2018-03-11T15:27:42.188Z,1.77
2018-03-11T15:30:09.657Z,1.40
2018-03-11T15:32:37.166Z,1.67
2018-03-11T15:35:04.690Z,1.40
2018-03-11T15:37:32.249Z,1.20
2018-03-11T15:39:59.709Z,1.23
2018-03-11T15:42:27.201Z,2.10
2018-03-11T15:44:54.693Z,2.30
2018-03-11T15:47:22.186Z,2.47
2018-03-11T15:49:49.694Z,2.20
2018-03-11T15:52:17.981Z,2.80
2018-03-11T15:54:47.001Z,4.00
2018-03-11T15:57:14.476Z,2.50
2018-03-11T15:59:41.960Z,1.73
2018-03-11T16:02:10.211Z,1.97
2018-03-11T16:04:38.438Z,3.57
2018-03-11T16:07:05.960Z,2.30
2018-03-11T16:09:33.422Z,1.57
2018-03-11T16:12:00.938Z,1.23
2018-03-11T16:14:28.402Z,1.40
2018-03-11T16:16:55.872Z,1.50
2018-03-11T16:19:24.196Z,1.50
2018-03-11T16:21:51.677Z,1.50
2018-03-11T16:24:28.382Z,1.60
2018-03-11T16:26:46.625Z,2.20
2018-03-11T16:29:14.092Z,2.27
2018-03-11T16:31:41.568Z,3.10
2018-03-11T16:34:09.027Z,3.67
2018-03-11T16:36:36.501Z,2.10
2018-03-11T16:39:03.972Z,1.80
2018-03-11T16:41:31.488Z,2.23
2018-03-11T16:43:58.969Z,2.23
2018-03-11T16:46:26.460Z,2.40
2018-03-11T16:48:53.949Z,2.30
2018-03-11T16:51:21.537Z,2.67
2018-03-11T16:53:49.017Z,3.03
2018-03-11T16:56:16.603Z,3.30
2018-03-11T16:58:44.070Z,2.67
2018-03-11T17:01:11.564Z,3.23
2018-03-11T17:03:39.051Z,3.40
2018-03-11T17:06:06.513Z,3.57
2018-03-11T17:08:33.983Z,3.00
2018-03-11T17:11:02.217Z,3.30
2018-03-11T17:13:30.076Z,3.30
2018-03-11T17:15:57.563Z,3.67
2018-03-11T17:18:25.791Z,4.80
2018-03-11T17:20:53.249Z,6.73
2018-03-11T17:23:21.483Z,12.50
2018-03-11T17:25:49.866Z,8.07
2018-03-11T17:28:18.111Z,12.10
2018-03-11T17:30:45.584Z,9.30
2018-03-11T17:33:13.102Z,8.07
2018-03-11T17:35:40.608Z,10.67
2018-03-11T17:38:08.876Z,11.20
2018-03-11T17:40:36.344Z,9.33
2018-03-11T17:43:03.959Z,7.27
2018-03-11T17:45:32.193Z,7.87
2018-03-11T17:52:24.112Z,6.90
2018-03-11T17:54:51.627Z,4.50
2018-03-11T17:57:19.095Z,3.83
2018-03-11T17:59:46.593Z,4.00
2018-03-11T18:02:14.070Z,3.77
2018-03-11T18:04:42.311Z,3.77
2018-03-11T18:07:10.583Z,3.63
2018-03-11T18:09:38.059Z,4.60
2018-03-11T18:12:05.631Z,5.00
2018-03-11T18:14:33.133Z,5.63
2018-03-11T18:17:00.608Z,4.83
2018-03-11T18:19:28.065Z,5.80
2018-03-11T18:21:56.417Z,5.30
2018-03-11T18:24:23.879Z,5.00
2018-03-11T18:26:52.190Z,4.97
2018-03-11T18:29:20.565Z,4.93
2018-03-11T18:31:48.284Z,3.97
2018-03-11T18:34:15.750Z,3.87
2018-03-11T18:36:44.105Z,4.13
2018-03-11T18:39:11.576Z,3.93
2018-03-11T18:41:39.044Z,4.80
2018-03-11T18:44:06.545Z,4.47
2018-03-11T18:46:34.017Z,4.40
2018-03-11T18:49:01.484Z,4.27
2018-03-11T18:51:29.867Z,4.70
2018-03-11T18:53:57.336Z,4.43
2018-03-11T18:56:24.867Z,4.30
2018-03-11T18:58:53.218Z,4.50
2018-03-11T19:01:20.701Z,8.10
2018-03-11T19:03:48.197Z,6.80
2018-03-11T19:06:15.665Z,4.30
2018-03-11T19:08:43.156Z,4.40
2018-03-11T19:11:10.657Z,4.30
2018-03-11T19:13:38.073Z,5.10
2018-03-11T19:16:06.319Z,4.63
2018-03-11T19:18:33.917Z,4.47
2018-03-11T19:21:01.419Z,4.57
2018-03-11T19:23:28.938Z,4.83
2018-03-11T19:25:56.403Z,4.40
2018-03-11T19:28:23.867Z,4.60
2018-03-11T19:30:51.340Z,5.17
2018-03-11T19:33:18.872Z,4.90
2018-03-11T19:35:46.359Z,6.20
2018-03-11T19:38:14.598Z,5.97
2018-03-11T19:40:42.081Z,6.27
2018-03-11T19:43:09.600Z,5.67
2018-03-11T19:45:37.213Z,4.80
2018-03-11T19:48:05.478Z,5.10
2018-03-11T19:50:32.975Z,6.33
2018-03-11T19:53:00.460Z,5.63
2018-03-11T19:55:27.930Z,6.70
2018-03-11T19:57:55.425Z,8.57
2018-03-11T20:00:22.903Z,9.20
2018-03-11T20:02:50.378Z,5.70
2018-03-11T20:05:18.650Z,6.57
2018-03-11T20:07:46.411Z,5.77
2018-03-11T20:10:13.911Z,5.80
2018-03-11T20:12:41.378Z,5.07
2018-03-11T20:15:09.734Z,4.80
2018-03-11T20:17:37.214Z,4.53
2018-03-11T20:20:04.766Z,5.03
2018-03-11T20:22:32.309Z,11.57
2018-03-11T20:24:59.815Z,16.33
2018-03-11T20:27:27.373Z,11.83
2018-03-11T20:29:54.868Z,5.37
2018-03-11T20:32:22.449Z,4.77
2018-03-11T20:34:49.988Z,4.83
2018-03-11T20:37:17.491Z,5.53
2018-03-11T20:39:45.725Z,5.83
2018-03-11T20:42:13.201Z,5.20
2018-03-11T20:44:40.716Z,4.90
2018-03-11T20:47:08.230Z,4.60
2018-03-11T20:49:35.708Z,4.53
2018-03-11T20:52:03.200Z,4.17
2018-03-11T20:54:30.774Z,4.27
2018-03-11T20:56:58.275Z,5.90
2018-03-11T20:59:25.845Z,6.80
2018-03-11T21:01:53.315Z,6.40
2018-03-11T21:04:20.776Z,5.50
2018-03-11T21:06:49.019Z,5.20
2018-03-11T21:09:16.538Z,6.20
2018-03-11T21:11:44.033Z,6.40
2018-03-11T21:14:11.600Z,5.87
2018-03-11T21:16:39.166Z,5.10
2018-03-11T21:19:06.750Z,5.70
2018-03-11T21:21:34.248Z,6.97
2018-03-11T21:24:01.731Z,6.87
2018-03-11T21:26:29.212Z,8.90
2018-03-11T21:28:56.695Z,8.93
2018-03-11T21:31:24.186Z,10.30
2018-03-11T21:33:51.725Z,11.20
2018-03-11T21:36:19.976Z,8.13
2018-03-11T21:38:47.433Z,7.83
2018-03-11T21:41:14.931Z,8.67
2018-03-11T21:43:42.419Z,8.03
2018-03-11T21:46:09.890Z,8.90
2018-03-11T21:48:37.359Z,8.63
2018-03-11T21:51:04.835Z,8.27
2018-03-11T21:53:32.297Z,8.63
2018-03-11T21:56:00.531Z,8.63
2018-03-11T21:58:27.999Z,8.50
2018-03-11T22:00:56.228Z,8.67
2018-03-11T22:03:23.712Z,8.73
2018-03-11T22:05:51.262Z,12.50
2018-03-11T22:08:19.512Z,11.03
2018-03-11T22:10:47.040Z,8.33
2018-03-11T22:13:14.565Z,7.93
2018-03-11T22:15:42.195Z,8.67
2018-03-11T22:18:09.658Z,9.10
2018-03-11T22:20:37.162Z,8.27
2018-03-11T22:23:04.630Z,7.80
2018-03-11T22:25:32.925Z,7.33
2018-03-11T22:28:00.531Z,8.30
2018-03-11T22:30:28.858Z,8.17
2018-03-11T22:32:56.332Z,8.07
2018-03-11T22:35:24.559Z,7.77
2018-03-11T22:37:52.023Z,7.63
2018-03-11T22:40:20.292Z,9.40
2018-03-11T22:42:47.755Z,7.17
2018-03-11T22:45:15.210Z,7.73
2018-03-11T22:47:42.672Z,8.10
2018-03-11T22:50:10.939Z,7.73
2018-03-11T22:52:38.434Z,7.57
2018-03-11T22:55:05.906Z,7.73
2018-03-11T22:57:33.386Z,7.97
2018-03-11T23:00:00.842Z,8.13
2018-03-11T23:02:28.304Z,8.50
2018-03-11T23:04:56.538Z,8.37
2018-03-11T23:07:23.990Z,8.07
2018-03-11T23:09:52.243Z,8.80
2018-03-11T23:12:19.740Z,7.93
2018-03-11T23:14:47.238Z,7.80
2018-03-11T23:17:14.695Z,8.03
2018-03-11T23:19:42.165Z,8.30
2018-03-11T23:22:09.679Z,8.17
2018-03-11T23:24:37.159Z,8.43
2018-03-11T23:27:04.626Z,9.07
2018-03-11T23:29:32.099Z,14.53
2018-03-11T23:31:59.605Z,14.73
2018-03-11T23:34:27.079Z,13.50
2018-03-11T23:36:54.548Z,11.77
2018-03-11T23:39:22.013Z,11.50
2018-03-11T23:41:49.595Z,9.97
2018-03-11T23:44:17.100Z,10.50
2018-03-11T23:46:44.612Z,11.27
2018-03-11T23:49:12.157Z,9.57
2018-03-11T23:51:40.398Z,7.60
2018-03-11T23:54:07.861Z,5.83
2018-03-11T23:56:35.386Z,5.93
2018-03-11T23:59:02.874Z,5.43
